sensor_id;sensor_type;location;lat;lon;timestamp;pressure;altitude;pressure_sealevel;temperature;humidity
47742;BME280;33504;52.066;6.096;2023-04-26T00:00:45;101833.11;;;7.05;41.93
47742;BME280;33504;52.066;6.096;2023-04-26T00:03:12;101828.33;;;6.84;41.80
47742;BME280;33504;52.066;6.096;2023-04-26T00:05:39;101828.03;;;6.79;41.73
47742;BME280;33504;52.066;6.096;2023-04-26T00:08:06;101825.61;;;6.96;41.92
47742;BME280;33504;52.066;6.096;2023-04-26T00:10:32;101831.91;;;6.71;41.89
47742;BME280;33504;52.066;6.096;2023-04-26T00:12:59;101832.02;;;6.71;41.74
47742;BME280;33504;52.066;6.096;2023-04-26T00:15:26;101830.57;;;6.92;41.88
47742;BME280;33504;52.066;6.096;2023-04-26T00:17:53;101830.91;;;6.64;41.91
47742;BME280;33504;52.066;6.096;2023-04-26T00:20:20;101828.36;;;6.67;41.90
47742;BME280;33504;52.066;6.096;2023-04-26T00:22:47;101828.89;;;6.67;42.05
47742;BME280;33504;52.066;6.096;2023-04-26T00:25:15;101834.48;;;6.68;41.89
47742;BME280;33504;52.066;6.096;2023-04-26T00:27:42;101835.09;;;6.90;42.09
47742;BME280;33504;52.066;6.096;2023-04-26T00:30:10;101834.14;;;6.67;42.06
47742;BME280;33504;52.066;6.096;2023-04-26T00:32:37;101830.95;;;6.84;42.02
47742;BME280;33504;52.066;6.096;2023-04-26T00:35:05;101833.40;;;6.57;41.93
47742;BME280;33504;52.066;6.096;2023-04-26T00:37:33;101829.94;;;6.77;41.92
47742;BME280;33504;52.066;6.096;2023-04-26T00:40:00;101828.01;;;6.75;42.06
47742;BME280;33504;52.066;6.096;2023-04-26T00:42:27;101827.70;;;6.49;41.98
47742;BME280;33504;52.066;6.096;2023-04-26T00:44:54;101828.41;;;6.49;42.03
47742;BME280;33504;52.066;6.096;2023-04-26T00:47:20;101828.10;;;6.65;41.99
47742;BME280;33504;52.066;6.096;2023-04-26T00:49:47;101826.43;;;6.62;42.16
47742;BME280;33504;52.066;6.096;2023-04-26T00:52:14;101819.89;;;6.58;42.20
47742;BME280;33504;52.066;6.096;2023-04-26T00:54:42;101816.72;;;6.55;42.39
47742;BME280;33504;52.066;6.096;2023-04-26T00:57:10;101817.82;;;6.53;42.36
47742;BME280;33504;52.066;6.096;2023-04-26T00:59:37;101819.24;;;6.52;42.10
47742;BME280;33504;52.066;6.096;2023-04-26T01:02:04;101821.27;;;6.47;42.02
47742;BME280;33504;52.066;6.096;2023-04-26T01:04:31;101822.00;;;6.41;42.20
47742;BME280;33504;52.066;6.096;2023-04-26T01:06:59;101821.77;;;6.32;42.20
47742;BME280;33504;52.066;6.096;2023-04-26T01:09:26;101817.57;;;6.21;42.44
47742;BME280;33504;52.066;6.096;2023-04-26T01:11:54;101815.20;;;6.18;42.49
47742;BME280;33504;52.066;6.096;2023-04-26T01:14:21;101819.52;;;6.13;42.54
47742;BME280;33504;52.066;6.096;2023-04-26T01:16:49;101817.68;;;6.12;42.65
47742;BME280;33504;52.066;6.096;2023-04-26T01:19:16;101822.10;;;6.13;42.87
47742;BME280;33504;52.066;6.096;2023-04-26T01:21:43;101821.15;;;6.14;42.73
47742;BME280;33504;52.066;6.096;2023-04-26T01:24:11;101823.91;;;6.10;42.67
47742;BME280;33504;52.066;6.096;2023-04-26T01:26:39;101825.96;;;6.38;42.82
47742;BME280;33504;52.066;6.096;2023-04-26T01:29:12;101825.53;;;6.07;42.91
47742;BME280;33504;52.066;6.096;2023-04-26T01:31:40;101831.74;;;6.10;42.84
47742;BME280;33504;52.066;6.096;2023-04-26T01:34:06;101832.55;;;6.06;42.90
47742;BME280;33504;52.066;6.096;2023-04-26T01:36:33;101830.03;;;6.08;42.92
47742;BME280;33504;52.066;6.096;2023-04-26T01:39:00;101828.88;;;6.60;42.96
47742;BME280;33504;52.066;6.096;2023-04-26T01:41:27;101831.78;;;6.08;42.94
47742;BME280;33504;52.066;6.096;2023-04-26T01:43:54;101831.60;;;6.05;43.02
47742;BME280;33504;52.066;6.096;2023-04-26T01:46:21;101830.21;;;6.30;43.14
47742;BME280;33504;52.066;6.096;2023-04-26T01:48:48;101830.52;;;5.98;43.34
47742;BME280;33504;52.066;6.096;2023-04-26T01:51:15;101828.23;;;5.88;43.44
47742;BME280;33504;52.066;6.096;2023-04-26T01:53:42;101829.05;;;5.92;43.84
47742;BME280;33504;52.066;6.096;2023-04-26T01:56:09;101827.94;;;5.89;43.78
47742;BME280;33504;52.066;6.096;2023-04-26T01:58:35;101826.44;;;5.60;43.91
47742;BME280;33504;52.066;6.096;2023-04-26T02:01:05;101828.60;;;6.16;43.68
47742;BME280;33504;52.066;6.096;2023-04-26T02:03:32;101832.74;;;5.46;43.89
47742;BME280;33504;52.066;6.096;2023-04-26T02:06:00;101829.44;;;6.01;43.35
47742;BME280;33504;52.066;6.096;2023-04-26T02:08:27;101826.19;;;5.83;43.23
47742;BME280;33504;52.066;6.096;2023-04-26T02:10:54;101825.54;;;6.39;43.10
47742;BME280;33504;52.066;6.096;2023-04-26T02:13:21;101826.19;;;5.92;42.89
47742;BME280;33504;52.066;6.096;2023-04-26T02:15:48;101828.21;;;6.12;42.86
47742;BME280;33504;52.066;6.096;2023-04-26T02:18:15;101827.39;;;5.91;42.77
47742;BME280;33504;52.066;6.096;2023-04-26T02:20:42;101828.76;;;5.87;42.81
47742;BME280;33504;52.066;6.096;2023-04-26T02:23:11;101826.08;;;6.00;42.85
47742;BME280;33504;52.066;6.096;2023-04-26T02:25:38;101824.09;;;5.73;42.97
47742;BME280;33504;52.066;6.096;2023-04-26T02:28:06;101824.59;;;5.94;42.98
47742;BME280;33504;52.066;6.096;2023-04-26T02:30:33;101824.45;;;5.66;42.92
47742;BME280;33504;52.066;6.096;2023-04-26T02:32:59;101825.23;;;5.94;43.01
47742;BME280;33504;52.066;6.096;2023-04-26T02:35:26;101828.35;;;5.91;42.96
47742;BME280;33504;52.066;6.096;2023-04-26T02:37:53;101828.22;;;5.65;42.79
47742;BME280;33504;52.066;6.096;2023-04-26T02:40:21;101828.63;;;5.61;42.81
47742;BME280;33504;52.066;6.096;2023-04-26T02:42:48;101825.90;;;5.62;42.72
47742;BME280;33504;52.066;6.096;2023-04-26T02:45:15;101823.02;;;5.64;42.85
47742;BME280;33504;52.066;6.096;2023-04-26T02:47:42;101824.80;;;5.86;42.96
47742;BME280;33504;52.066;6.096;2023-04-26T02:50:10;101824.11;;;5.61;42.97
47742;BME280;33504;52.066;6.096;2023-04-26T02:52:37;101822.04;;;5.91;42.93
47742;BME280;33504;52.066;6.096;2023-04-26T02:55:04;101824.89;;;5.65;42.94
47742;BME280;33504;52.066;6.096;2023-04-26T02:57:32;101823.35;;;5.66;42.94
47742;BME280;33504;52.066;6.096;2023-04-26T02:59:58;101822.73;;;5.96;42.94
47742;BME280;33504;52.066;6.096;2023-04-26T03:02:26;101822.75;;;5.79;43.17
47742;BME280;33504;52.066;6.096;2023-04-26T03:04:54;101822.70;;;5.91;43.11
47742;BME280;33504;52.066;6.096;2023-04-26T03:07:21;101821.45;;;5.92;43.15
47742;BME280;33504;52.066;6.096;2023-04-26T03:09:48;101826.39;;;5.70;43.11
47742;BME280;33504;52.066;6.096;2023-04-26T03:12:15;101826.37;;;6.17;43.03
47742;BME280;33504;52.066;6.096;2023-04-26T03:14:42;101823.15;;;5.70;43.13
47742;BME280;33504;52.066;6.096;2023-04-26T03:17:09;101818.62;;;5.68;43.00
47742;BME280;33504;52.066;6.096;2023-04-26T03:19:36;101817.42;;;5.95;43.06
47742;BME280;33504;52.066;6.096;2023-04-26T03:22:03;101819.46;;;5.62;43.11
47742;BME280;33504;52.066;6.096;2023-04-26T03:24:30;101819.92;;;5.63;43.01
47742;BME280;33504;52.066;6.096;2023-04-26T03:26:57;101820.39;;;5.89;42.93
47742;BME280;33504;52.066;6.096;2023-04-26T03:29:24;101815.70;;;5.58;42.90
47742;BME280;33504;52.066;6.096;2023-04-26T03:31:51;101816.38;;;5.58;43.00
47742;BME280;33504;52.066;6.096;2023-04-26T03:34:18;101812.70;;;5.52;43.03
47742;BME280;33504;52.066;6.096;2023-04-26T03:36:45;101811.23;;;5.74;43.01
47742;BME280;33504;52.066;6.096;2023-04-26T03:39:12;101807.78;;;5.90;43.15
47742;BME280;33504;52.066;6.096;2023-04-26T03:41:38;101805.85;;;5.62;43.16
47742;BME280;33504;52.066;6.096;2023-04-26T03:44:05;101808.10;;;5.72;43.40
47742;BME280;33504;52.066;6.096;2023-04-26T03:46:32;101809.70;;;5.70;43.37
47742;BME280;33504;52.066;6.096;2023-04-26T03:49:00;101808.50;;;5.68;43.34
47742;BME280;33504;52.066;6.096;2023-04-26T03:51:27;101809.36;;;5.42;43.38
47742;BME280;33504;52.066;6.096;2023-04-26T03:53:54;101806.28;;;5.44;43.28
47742;BME280;33504;52.066;6.096;2023-04-26T03:56:20;101803.96;;;5.47;43.41
47742;BME280;33504;52.066;6.096;2023-04-26T03:58:48;101802.13;;;5.69;43.38
47742;BME280;33504;52.066;6.096;2023-04-26T04:01:15;101803.51;;;5.45;43.24
47742;BME280;33504;52.066;6.096;2023-04-26T04:03:42;101805.45;;;5.65;43.19
47742;BME280;33504;52.066;6.096;2023-04-26T04:06:09;101804.04;;;5.58;43.35
47742;BME280;33504;52.066;6.096;2023-04-26T04:08:37;101802.44;;;5.52;43.45
47742;BME280;33504;52.066;6.096;2023-04-26T04:11:04;101802.94;;;5.20;43.60
47742;BME280;33504;52.066;6.096;2023-04-26T04:13:31;101802.78;;;5.20;43.59
47742;BME280;33504;52.066;6.096;2023-04-26T04:15:58;101803.88;;;5.48;43.51
47742;BME280;33504;52.066;6.096;2023-04-26T04:18:25;101805.36;;;5.48;43.42
47742;BME280;33504;52.066;6.096;2023-04-26T04:20:52;101807.56;;;5.20;43.64
47742;BME280;33504;52.066;6.096;2023-04-26T04:23:18;101810.14;;;5.40;43.57
47742;BME280;33504;52.066;6.096;2023-04-26T04:25:45;101810.42;;;5.38;43.79
47742;BME280;33504;52.066;6.096;2023-04-26T04:28:12;101813.20;;;5.37;43.94
47742;BME280;33504;52.066;6.096;2023-04-26T04:30:40;101812.66;;;5.37;44.01
47742;BME280;33504;52.066;6.096;2023-04-26T04:33:08;101810.77;;;5.07;44.26
47742;BME280;33504;52.066;6.096;2023-04-26T04:35:35;101810.46;;;5.26;44.41
47742;BME280;33504;52.066;6.096;2023-04-26T04:38:02;101814.82;;;5.38;44.16
47742;BME280;33504;52.066;6.096;2023-04-26T04:40:29;101818.29;;;5.42;44.31
47742;BME280;33504;52.066;6.096;2023-04-26T04:42:56;101817.22;;;5.29;44.30
47742;BME280;33504;52.066;6.096;2023-04-26T04:45:23;101816.61;;;5.41;44.02
47742;BME280;33504;52.066;6.096;2023-04-26T04:47:50;101818.62;;;5.44;44.00
47742;BME280;33504;52.066;6.096;2023-04-26T04:50:18;101818.61;;;5.58;44.05
47742;BME280;33504;52.066;6.096;2023-04-26T04:52:45;101819.80;;;5.63;43.96
47742;BME280;33504;52.066;6.096;2023-04-26T04:55:12;101822.57;;;5.46;43.99
47742;BME280;33504;52.066;6.096;2023-04-26T04:57:39;101825.98;;;5.71;43.80
47742;BME280;33504;52.066;6.096;2023-04-26T05:00:07;101824.45;;;5.76;43.81
47742;BME280;33504;52.066;6.096;2023-04-26T05:02:35;101827.34;;;5.57;43.77
47742;BME280;33504;52.066;6.096;2023-04-26T05:05:02;101831.60;;;5.64;43.74
47742;BME280;33504;52.066;6.096;2023-04-26T05:07:28;101830.28;;;5.88;43.72
47742;BME280;33504;52.066;6.096;2023-04-26T05:09:55;101826.31;;;5.44;43.82
47742;BME280;33504;52.066;6.096;2023-04-26T05:12:22;101825.20;;;5.47;44.01
47742;BME280;33504;52.066;6.096;2023-04-26T05:14:49;101823.85;;;5.59;43.97
47742;BME280;33504;52.066;6.096;2023-04-26T05:17:16;101826.83;;;5.89;44.13
47742;BME280;33504;52.066;6.096;2023-04-26T05:19:43;101825.42;;;5.63;44.18
47742;BME280;33504;52.066;6.096;2023-04-26T05:22:10;101824.80;;;6.02;43.99
47742;BME280;33504;52.066;6.096;2023-04-26T05:24:37;101829.80;;;6.02;44.17
47742;BME280;33504;52.066;6.096;2023-04-26T05:27:04;101833.74;;;5.90;43.95
47742;BME280;33504;52.066;6.096;2023-04-26T05:29:31;101833.31;;;5.80;44.06
47742;BME280;33504;52.066;6.096;2023-04-26T05:31:58;101834.68;;;6.07;44.12
47742;BME280;33504;52.066;6.096;2023-04-26T05:34:25;101837.76;;;5.95;43.94
47742;BME280;33504;52.066;6.096;2023-04-26T05:36:51;101837.69;;;5.98;43.99
47742;BME280;33504;52.066;6.096;2023-04-26T05:39:18;101838.49;;;6.39;43.79
47742;BME280;33504;52.066;6.096;2023-04-26T05:41:45;101840.46;;;6.11;43.89
47742;BME280;33504;52.066;6.096;2023-04-26T05:44:12;101842.03;;;6.17;43.91
47742;BME280;33504;52.066;6.096;2023-04-26T05:46:39;101843.41;;;6.32;43.76
47742;BME280;33504;52.066;6.096;2023-04-26T05:49:06;101844.57;;;6.24;44.04
47742;BME280;33504;52.066;6.096;2023-04-26T05:51:33;101849.89;;;6.31;44.18
47742;BME280;33504;52.066;6.096;2023-04-26T05:54:00;101855.82;;;6.43;44.06
47742;BME280;33504;52.066;6.096;2023-04-26T05:56:27;101855.08;;;6.42;43.79
47742;BME280;33504;52.066;6.096;2023-04-26T05:58:54;101856.88;;;6.72;43.55
47742;BME280;33504;52.066;6.096;2023-04-26T06:01:20;101856.41;;;6.40;43.47
47742;BME280;33504;52.066;6.096;2023-04-26T06:03:47;101856.51;;;6.73;43.52
47742;BME280;33504;52.066;6.096;2023-04-26T06:06:15;101857.92;;;6.74;43.27
47742;BME280;33504;52.066;6.096;2023-04-26T06:08:42;101856.34;;;6.95;43.09
47742;BME280;33504;52.066;6.096;2023-04-26T06:11:09;101859.24;;;6.63;43.39
47742;BME280;33504;52.066;6.096;2023-04-26T06:13:36;101858.07;;;7.14;42.88
47742;BME280;33504;52.066;6.096;2023-04-26T06:16:04;101860.44;;;7.37;42.63
47742;BME280;33504;52.066;6.096;2023-04-26T06:18:31;101863.31;;;7.41;42.41
47742;BME280;33504;52.066;6.096;2023-04-26T06:20:58;101862.81;;;7.39;41.94
47742;BME280;33504;52.066;6.096;2023-04-26T06:23:25;101868.70;;;7.29;41.92
47742;BME280;33504;52.066;6.096;2023-04-26T06:25:52;101869.49;;;7.51;41.66
47742;BME280;33504;52.066;6.096;2023-04-26T06:28:18;101870.20;;;7.92;41.33
47742;BME280;33504;52.066;6.096;2023-04-26T06:30:45;101870.31;;;7.63;41.57
47742;BME280;33504;52.066;6.096;2023-04-26T06:33:12;101867.80;;;7.75;41.62
47742;BME280;33504;52.066;6.096;2023-04-26T06:35:39;101870.21;;;7.81;41.26
47742;BME280;33504;52.066;6.096;2023-04-26T06:38:07;101871.24;;;7.80;41.33
47742;BME280;33504;52.066;6.096;2023-04-26T06:40:34;101866.52;;;8.27;40.75
47742;BME280;33504;52.066;6.096;2023-04-26T06:43:02;101869.40;;;8.27;40.75
47742;BME280;33504;52.066;6.096;2023-04-26T06:45:29;101864.83;;;8.52;40.68
47742;BME280;33504;52.066;6.096;2023-04-26T06:47:56;101862.33;;;8.93;39.85
47742;BME280;33504;52.066;6.096;2023-04-26T06:50:23;101862.64;;;9.43;39.41
47742;BME280;33504;52.066;6.096;2023-04-26T06:52:50;101863.12;;;9.23;38.68
47742;BME280;33504;52.066;6.096;2023-04-26T06:55:17;101864.81;;;9.73;38.09
47742;BME280;33504;52.066;6.096;2023-04-26T06:57:44;101864.60;;;9.76;37.78
47742;BME280;33504;52.066;6.096;2023-04-26T07:00:12;101870.68;;;9.83;37.21
47742;BME280;33504;52.066;6.096;2023-04-26T07:02:39;101874.87;;;9.83;37.54
47742;BME280;33504;52.066;6.096;2023-04-26T07:05:06;101877.89;;;9.75;37.43
47742;BME280;33504;52.066;6.096;2023-04-26T07:07:33;101882.47;;;9.36;37.73
47742;BME280;33504;52.066;6.096;2023-04-26T07:10:00;101884.16;;;9.59;37.74
47742;BME280;33504;52.066;6.096;2023-04-26T07:12:27;101885.03;;;9.52;37.87
47742;BME280;33504;52.066;6.096;2023-04-26T07:14:54;101888.47;;;9.49;37.65
47742;BME280;33504;52.066;6.096;2023-04-26T07:17:21;101892.22;;;8.99;38.02
47742;BME280;33504;52.066;6.096;2023-04-26T07:19:48;101895.18;;;9.15;38.03
47742;BME280;33504;52.066;6.096;2023-04-26T07:22:15;101890.09;;;9.55;38.24
47742;BME280;33504;52.066;6.096;2023-04-26T07:24:42;101887.24;;;9.57;38.31
47742;BME280;33504;52.066;6.096;2023-04-26T07:27:09;101887.23;;;9.84;38.06
47742;BME280;33504;52.066;6.096;2023-04-26T07:29:35;101886.65;;;9.40;37.46
47742;BME280;33504;52.066;6.096;2023-04-26T07:32:03;101888.76;;;9.59;37.06
47742;BME280;33504;52.066;6.096;2023-04-26T07:34:30;101888.46;;;9.91;36.85
47742;BME280;33504;52.066;6.096;2023-04-26T07:36:57;101887.16;;;10.08;36.63
47742;BME280;33504;52.066;6.096;2023-04-26T07:39:24;101884.71;;;9.79;35.96
47742;BME280;33504;52.066;6.096;2023-04-26T07:41:51;101882.82;;;9.78;35.88
47742;BME280;33504;52.066;6.096;2023-04-26T07:44:17;101878.02;;;10.20;35.95
47742;BME280;33504;52.066;6.096;2023-04-26T07:46:44;101880.69;;;10.10;36.41
47742;BME280;33504;52.066;6.096;2023-04-26T07:49:12;101881.37;;;10.11;36.01
47742;BME280;33504;52.066;6.096;2023-04-26T07:51:42;101880.39;;;10.32;35.99
47742;BME280;33504;52.066;6.096;2023-04-26T07:54:09;101881.26;;;10.14;35.81
47742;BME280;33504;52.066;6.096;2023-04-26T07:56:36;101882.27;;;10.62;35.92
47742;BME280;33504;52.066;6.096;2023-04-26T07:59:03;101881.78;;;10.31;35.35
47742;BME280;33504;52.066;6.096;2023-04-26T08:01:30;101889.09;;;10.61;35.31
47742;BME280;33504;52.066;6.096;2023-04-26T08:03:57;101886.70;;;10.31;34.96
47742;BME280;33504;52.066;6.096;2023-04-26T08:06:23;101884.14;;;10.71;34.79
47742;BME280;33504;52.066;6.096;2023-04-26T08:08:50;101883.67;;;10.25;35.10
47742;BME280;33504;52.066;6.096;2023-04-26T08:11:17;101885.48;;;10.55;34.46
47742;BME280;33504;52.066;6.096;2023-04-26T08:13:45;101889.86;;;10.67;34.32
47742;BME280;33504;52.066;6.096;2023-04-26T08:16:13;101883.52;;;11.15;33.80
47742;BME280;33504;52.066;6.096;2023-04-26T08:18:40;101888.23;;;10.96;33.71
47742;BME280;33504;52.066;6.096;2023-04-26T08:21:07;101885.92;;;11.16;33.29
47742;BME280;33504;52.066;6.096;2023-04-26T08:23:34;101890.37;;;11.31;33.42
47742;BME280;33504;52.066;6.096;2023-04-26T08:26:02;101891.73;;;11.69;32.86
47742;BME280;33504;52.066;6.096;2023-04-26T08:28:28;101895.37;;;11.50;32.19
47742;BME280;33504;52.066;6.096;2023-04-26T08:30:55;101894.23;;;11.64;31.77
47742;BME280;33504;52.066;6.096;2023-04-26T08:33:22;101897.16;;;11.52;31.24
47742;BME280;33504;52.066;6.096;2023-04-26T08:35:49;101896.82;;;11.64;31.30
47742;BME280;33504;52.066;6.096;2023-04-26T08:38:16;101898.68;;;11.50;31.57
47742;BME280;33504;52.066;6.096;2023-04-26T08:40:45;101902.13;;;11.33;31.38
47742;BME280;33504;52.066;6.096;2023-04-26T08:43:14;101897.93;;;11.35;31.65
47742;BME280;33504;52.066;6.096;2023-04-26T08:45:44;101902.92;;;11.99;31.52
47742;BME280;33504;52.066;6.096;2023-04-26T08:48:11;101896.85;;;12.40;31.16
47742;BME280;33504;52.066;6.096;2023-04-26T08:50:40;101891.87;;;12.90;30.69
47742;BME280;33504;52.066;6.096;2023-04-26T08:53:10;101887.57;;;12.79;30.48
47742;BME280;33504;52.066;6.096;2023-04-26T08:55:40;101886.99;;;12.93;30.72
47742;BME280;33504;52.066;6.096;2023-04-26T08:58:08;101886.39;;;13.04;30.36
47742;BME280;33504;52.066;6.096;2023-04-26T09:00:35;101884.02;;;13.04;29.69
47742;BME280;33504;52.066;6.096;2023-04-26T09:03:02;101886.64;;;12.54;30.27
47742;BME280;33504;52.066;6.096;2023-04-26T09:05:29;101887.76;;;12.80;29.27
47742;BME280;33504;52.066;6.096;2023-04-26T09:07:56;101887.82;;;12.53;29.11
47742;BME280;33504;52.066;6.096;2023-04-26T09:10:26;101889.95;;;12.70;29.67
47742;BME280;33504;52.066;6.096;2023-04-26T09:12:53;101885.83;;;12.96;30.24
47742;BME280;33504;52.066;6.096;2023-04-26T09:15:21;101883.39;;;12.73;29.82
47742;BME280;33504;52.066;6.096;2023-04-26T09:17:49;101880.41;;;13.21;29.23
47742;BME280;33504;52.066;6.096;2023-04-26T09:20:19;101878.47;;;13.09;28.73
47742;BME280;33504;52.066;6.096;2023-04-26T09:22:46;101876.14;;;12.61;28.66
47742;BME280;33504;52.066;6.096;2023-04-26T09:25:15;101878.79;;;12.67;28.90
47742;BME280;33504;52.066;6.096;2023-04-26T09:27:44;101874.13;;;12.92;28.77
47742;BME280;33504;52.066;6.096;2023-04-26T09:30:13;101877.37;;;12.87;28.73
47742;BME280;33504;52.066;6.096;2023-04-26T09:32:50;101873.65;;;12.46;28.76
47742;BME280;33504;52.066;6.096;2023-04-26T09:35:22;101867.69;;;12.72;28.59
47742;BME280;33504;52.066;6.096;2023-04-26T09:37:52;101872.94;;;12.46;28.41
47742;BME280;33504;52.066;6.096;2023-04-26T09:40:20;101873.64;;;12.29;28.64
47742;BME280;33504;52.066;6.096;2023-04-26T09:42:56;101873.29;;;12.46;29.20
47742;BME280;33504;52.066;6.096;2023-04-26T09:45:23;101872.93;;;12.49;29.26
47742;BME280;33504;52.066;6.096;2023-04-26T09:47:51;101869.39;;;12.54;29.05
47742;BME280;33504;52.066;6.096;2023-04-26T09:50:28;101868.20;;;12.23;28.73
47742;BME280;33504;52.066;6.096;2023-04-26T09:52:55;101870.68;;;12.14;28.96
47742;BME280;33504;52.066;6.096;2023-04-26T09:55:30;101868.26;;;12.74;28.60
47742;BME280;33504;52.066;6.096;2023-04-26T09:57:57;101867.03;;;13.47;28.02
47742;BME280;33504;52.066;6.096;2023-04-26T10:00:25;101863.56;;;13.66;27.26
47742;BME280;33504;52.066;6.096;2023-04-26T10:02:54;101861.99;;;14.39;26.91
47742;BME280;33504;52.066;6.096;2023-04-26T10:05:22;101860.92;;;15.04;25.27
47742;BME280;33504;52.066;6.096;2023-04-26T10:07:49;101858.36;;;15.26;24.29
47742;BME280;33504;52.066;6.096;2023-04-26T10:10:17;101858.05;;;15.07;24.60
47742;BME280;33504;52.066;6.096;2023-04-26T10:12:45;101857.03;;;14.58;24.59
47742;BME280;33504;52.066;6.096;2023-04-26T10:15:12;101858.91;;;14.76;24.82
47742;BME280;33504;52.066;6.096;2023-04-26T10:17:40;101855.30;;;14.34;25.85
47742;BME280;33504;52.066;6.096;2023-04-26T10:20:10;101862.26;;;14.61;25.80
47742;BME280;33504;52.066;6.096;2023-04-26T10:22:42;101861.29;;;14.11;26.16
47742;BME280;33504;52.066;6.096;2023-04-26T10:25:10;101867.54;;;13.55;26.81
47742;BME280;33504;52.066;6.096;2023-04-26T10:27:53;101869.90;;;13.40;27.50
47742;BME280;33504;52.066;6.096;2023-04-26T10:30:21;101867.18;;;12.69;28.48
47742;BME280;33504;52.066;6.096;2023-04-26T10:33:11;101869.45;;;12.72;28.68
47742;BME280;33504;52.066;6.096;2023-04-26T10:35:59;101869.14;;;11.96;29.19
47742;BME280;33504;52.066;6.096;2023-04-26T10:38:26;101867.62;;;12.08;29.45
47742;BME280;33504;52.066;6.096;2023-04-26T10:40:53;101865.91;;;12.20;29.26
47742;BME280;33504;52.066;6.096;2023-04-26T10:43:28;101864.57;;;12.02;29.60
47742;BME280;33504;52.066;6.096;2023-04-26T10:45:55;101867.16;;;12.07;29.85
47742;BME280;33504;52.066;6.096;2023-04-26T10:48:28;101865.00;;;11.82;29.77
47742;BME280;33504;52.066;6.096;2023-04-26T10:51:11;101863.11;;;11.72;29.85
47742;BME280;33504;52.066;6.096;2023-04-26T10:54:08;101865.71;;;12.13;29.75
47742;BME280;33504;52.066;6.096;2023-04-26T10:56:51;101864.52;;;12.10;29.89
47742;BME280;33504;52.066;6.096;2023-04-26T10:59:20;101861.18;;;11.89;30.32
47742;BME280;33504;52.066;6.096;2023-04-26T11:01:47;101861.36;;;12.05;29.81
47742;BME280;33504;52.066;6.096;2023-04-26T11:04:14;101862.34;;;11.80;30.07
47742;BME280;33504;52.066;6.096;2023-04-26T11:06:49;101863.84;;;12.13;29.97
47742;BME280;33504;52.066;6.096;2023-04-26T11:09:32;101865.96;;;12.37;29.71
47742;BME280;33504;52.066;6.096;2023-04-26T11:11:59;101867.38;;;12.22;29.92
47742;BME280;33504;52.066;6.096;2023-04-26T11:14:27;101863.36;;;12.32;30.22
47742;BME280;33504;52.066;6.096;2023-04-26T11:16:55;101861.38;;;12.61;30.00
47742;BME280;33504;52.066;6.096;2023-04-26T11:19:22;101865.58;;;12.47;30.40
47742;BME280;33504;52.066;6.096;2023-04-26T11:21:48;101862.19;;;12.57;29.82
47742;BME280;33504;52.066;6.096;2023-04-26T11:24:15;101861.52;;;12.47;29.99
47742;BME280;33504;52.066;6.096;2023-04-26T11:26:50;101861.83;;;12.79;29.47
47742;BME280;33504;52.066;6.096;2023-04-26T11:29:17;101861.57;;;12.54;29.34
47742;BME280;33504;52.066;6.096;2023-04-26T11:31:51;101856.01;;;12.72;28.41
47742;BME280;33504;52.066;6.096;2023-04-26T11:34:20;101855.22;;;12.85;28.61
47742;BME280;33504;52.066;6.096;2023-04-26T11:36:47;101856.42;;;13.03;28.82
47742;BME280;33504;52.066;6.096;2023-04-26T11:39:14;101855.45;;;13.06;28.28
47742;BME280;33504;52.066;6.096;2023-04-26T11:41:41;101853.22;;;13.14;27.91
47742;BME280;33504;52.066;6.096;2023-04-26T11:44:10;101849.86;;;13.25;27.53
47742;BME280;33504;52.066;6.096;2023-04-26T11:46:37;101850.52;;;13.40;27.36
47742;BME280;33504;52.066;6.096;2023-04-26T11:49:06;101848.01;;;12.95;27.50
47742;BME280;33504;52.066;6.096;2023-04-26T11:51:34;101844.20;;;13.59;27.87
47742;BME280;33504;52.066;6.096;2023-04-26T11:54:00;101846.28;;;13.10;28.03
47742;BME280;33504;52.066;6.096;2023-04-26T11:56:27;101845.75;;;12.88;28.10
47742;BME280;33504;52.066;6.096;2023-04-26T11:58:54;101845.49;;;13.39;27.88
47742;BME280;33504;52.066;6.096;2023-04-26T12:01:22;101849.79;;;13.51;27.64
47742;BME280;33504;52.066;6.096;2023-04-26T12:03:50;101849.29;;;13.22;27.35
47742;BME280;33504;52.066;6.096;2023-04-26T12:06:17;101849.38;;;13.22;27.43
47742;BME280;33504;52.066;6.096;2023-04-26T12:08:48;101850.66;;;13.15;27.73
47742;BME280;33504;52.066;6.096;2023-04-26T12:11:16;101853.58;;;13.04;28.18
47742;BME280;33504;52.066;6.096;2023-04-26T12:13:44;101853.26;;;13.17;27.70
47742;BME280;33504;52.066;6.096;2023-04-26T12:16:13;101852.14;;;12.80;27.86
47742;BME280;33504;52.066;6.096;2023-04-26T12:18:40;101851.66;;;12.69;28.26
47742;BME280;33504;52.066;6.096;2023-04-26T12:21:07;101855.33;;;13.16;28.51
47742;BME280;33504;52.066;6.096;2023-04-26T12:23:36;101855.73;;;13.07;28.67
47742;BME280;33504;52.066;6.096;2023-04-26T12:26:03;101858.54;;;12.50;28.59
47742;BME280;33504;52.066;6.096;2023-04-26T12:28:30;101857.60;;;12.79;28.80
47742;BME280;33504;52.066;6.096;2023-04-26T12:30:57;101859.14;;;12.45;28.87
47742;BME280;33504;52.066;6.096;2023-04-26T12:33:24;101859.20;;;12.65;29.19
47742;BME280;33504;52.066;6.096;2023-04-26T12:35:51;101858.92;;;12.63;29.76
47742;BME280;33504;52.066;6.096;2023-04-26T12:38:18;101856.68;;;12.57;29.27
47742;BME280;33504;52.066;6.096;2023-04-26T12:40:44;101853.31;;;13.09;29.41
47742;BME280;33504;52.066;6.096;2023-04-26T12:43:11;101853.07;;;12.86;29.69
47742;BME280;33504;52.066;6.096;2023-04-26T12:45:38;101853.79;;;13.05;29.70
47742;BME280;33504;52.066;6.096;2023-04-26T12:48:05;101854.86;;;13.14;29.80
47742;BME280;33504;52.066;6.096;2023-04-26T12:50:32;101856.36;;;13.22;29.65
47742;BME280;33504;52.066;6.096;2023-04-26T12:52:59;101851.20;;;13.32;29.27
47742;BME280;33504;52.066;6.096;2023-04-26T12:55:26;101851.89;;;12.85;29.29
47742;BME280;33504;52.066;6.096;2023-04-26T12:57:53;101857.08;;;13.54;29.36